Time;durP1;ratioP1;P1;durP2;ratioP2;P2;SDS_P1;SDS_P2;PMS_P1;PMS_P2;Temp;Humidity;BMP_temperature;BMP_pressure;BME280_temperature;BME280_humidity;BME280_pressure;Samples;Min_cycle;Max_cycle;Signal;HPM_P1;HPM_P2
2022/06/06 00:01:17;;;;;;;;;8.67;8.67;;;;;19.06;69.41;100814.63;5057671;28;45339;-70
2022/06/06 00:03:43;;;;;;;;;8.00;8.00;;;;;19.05;69.78;100810.19;5057554;28;45460;-69
2022/06/06 00:06:12;;;;;;;;;8.33;8.00;;;;;19.01;69.68;100805.78;5057996;28;45766;-72
2022/06/06 00:08:39;;;;;;;;;7.00;7.00;;;;;18.94;70.01;100794.31;5058008;28;45342;-71
2022/06/06 00:11:08;;;;;;;;;6.00;6.00;;;;;18.91;69.86;100788.13;5057683;28;46046;-69
2022/06/06 00:13:34;;;;;;;;;7.00;6.67;;;;;18.99;70.03;100802.25;5057946;28;45268;-70
2022/06/06 00:16:00;;;;;;;;;9.67;7.67;;;;;18.99;69.78;100802.25;5057846;28;45853;-69
2022/06/06 00:18:25;;;;;;;;;9.00;9.00;;;;;18.97;69.88;100801.38;5057830;28;45461;-69
2022/06/06 00:20:51;;;;;;;;;7.00;7.00;;;;;18.93;70.06;100796.97;5057357;28;46050;-69
2022/06/06 00:23:17;;;;;;;;;6.67;6.67;;;;;18.91;70.02;100786.38;5057519;28;45338;-70
2022/06/06 00:25:42;;;;;;;;;10.33;8.33;;;;;18.88;70.53;100784.63;5057516;28;45370;-69
2022/06/06 00:28:08;;;;;;;;;8.33;7.00;;;;;18.85;70.83;100789.88;5057093;28;45453;-69
2022/06/06 00:30:33;;;;;;;;;9.33;9.33;;;;;18.84;70.76;100790.78;5057355;28;46082;-69
2022/06/06 00:35:43;;;;;;;;;7.00;7.00;;;;;18.78;70.61;100780.19;5057565;28;45491;-70
2022/06/06 00:38:09;;;;;;;;;8.33;8.33;;;;;18.69;70.58;100761.63;5057637;28;45422;-70
2022/06/06 00:40:35;;;;;;;;;7.33;7.33;;;;;18.51;70.88;100748.41;5057400;28;45537;-69
2022/06/06 00:43:03;;;;;;;;;6.67;6.67;;;;;18.45;71.12;100752.81;5057123;28;45521;-68
2022/06/06 00:45:31;;;;;;;;;8.00;7.67;;;;;18.36;71.39;100751.91;5057129;28;45458;-68
2022/06/06 00:48:09;;;;;;;;;7.33;7.00;;;;;18.25;71.43;100750.13;5057422;28;45494;-69
2022/06/06 00:50:43;;;;;;;;;15.00;12.00;;;;;18.13;71.88;100742.19;5057284;28;46370;-69
2022/06/06 00:53:10;;;;;;;;;8.67;8.67;;;;;18.04;72.22;100745.66;5057097;28;45585;-68
2022/06/06 00:55:41;;;;;;;;;11.00;10.00;;;;;17.97;72.34;100743.91;5057464;28;45302;-69
2022/06/06 00:58:12;;;;;;;;;8.67;7.67;;;;;17.92;72.38;100750.06;5057430;28;45358;-69
2022/06/06 01:00:40;;;;;;;;;11.00;8.67;;;;;17.80;72.46;100743.81;5056737;28;45509;-68
2022/06/06 01:03:09;;;;;;;;;7.00;7.00;;;;;17.69;72.57;100735.84;5056968;28;45231;-69
2022/06/06 01:05:36;;;;;;;;;11.00;8.67;;;;;17.57;73.34;100733.16;5057208;28;45510;-69
2022/06/06 01:08:03;;;;;;;;;8.33;8.33;;;;;17.40;73.49;100714.59;5056991;28;45222;-69
2022/06/06 01:10:29;;;;;;;;;10.33;9.67;;;;;17.48;72.69;100722.56;5056743;28;45547;-73
2022/06/06 01:12:56;;;;;;;;;10.00;9.33;;;;;17.32;73.15;100697.84;5056731;28;45222;-71
2022/06/06 01:15:28;;;;;;;;;9.33;9.33;;;;;17.37;73.27;100704.03;5057018;28;45474;-72
2022/06/06 01:18:22;;;;;;;;;9.67;8.67;;;;;17.42;73.58;100709.31;5057090;28;45389;-70
2022/06/06 01:21:34;;;;;;;;;7.33;7.33;;;;;17.40;73.06;100700.50;5056613;28;46304;-69
2022/06/06 01:24:18;;;;;;;;;10.33;9.67;;;;;17.35;73.28;100699.59;5056517;28;45497;-69
2022/06/06 01:26:43;;;;;;;;;8.67;7.33;;;;;17.30;73.48;100695.19;5056684;28;45338;-69
2022/06/06 01:29:18;;;;;;;;;6.75;6.50;;;;;17.26;73.50;100692.53;5056911;28;45324;-69
2022/06/06 01:31:51;;;;;;;;;8.00;8.00;;;;;17.17;73.55;100690.72;5056868;28;45876;-69
2022/06/06 01:34:29;;;;;;;;;14.75;14.25;;;;;17.12;73.33;100692.44;5056471;28;45240;-69
2022/06/06 01:36:57;;;;;;;;;9.00;8.00;;;;;17.06;73.72;100687.13;5056796;28;45465;-69
2022/06/06 01:39:25;;;;;;;;;10.33;8.67;;;;;17.04;73.86;100686.25;5058117;28;45428;-69
2022/06/06 01:42:18;;;;;;;;;10.00;8.67;;;;;16.90;73.79;100670.34;5059933;28;45311;-69
2022/06/06 01:45:01;;;;;;;;;8.00;8.00;;;;;17.01;73.65;100683.56;5060029;28;45323;-69
2022/06/06 01:47:30;;;;;;;;;9.75;9.75;;;;;16.98;73.72;100684.44;5060080;28;45416;-69
2022/06/06 01:49:58;;;;;;;;;9.00;8.67;;;;;16.97;73.88;100684.44;5060177;28;45406;-68
2022/06/06 01:52:24;;;;;;;;;10.00;10.00;;;;;16.95;73.86;100680.91;5059770;28;45678;-69
2022/06/06 01:54:55;;;;;;;;;9.00;9.00;;;;;16.87;73.93;100671.22;5059845;28;45379;-69
2022/06/06 01:57:22;;;;;;;;;9.33;9.00;;;;;16.89;73.70;100685.28;5059890;28;45226;-69
2022/06/06 01:59:48;;;;;;;;;10.00;9.67;;;;;16.84;73.93;100681.72;5060082;28;45184;-69
2022/06/06 02:02:15;;;;;;;;;11.67;10.00;;;;;16.81;74.28;100675.50;5059489;28;45321;-69
2022/06/06 02:04:41;;;;;;;;;11.67;10.67;;;;;16.84;74.63;100684.38;5059438;28;45584;-69
2022/06/06 02:07:06;;;;;;;;;10.00;10.00;;;;;16.81;74.40;100679.09;5060078;28;45299;-69
2022/06/06 02:09:33;;;;;;;;;9.67;8.67;;;;;16.76;74.09;100678.13;5059916;28;45339;-69
2022/06/06 02:12:00;;;;;;;;;9.67;9.33;;;;;16.74;74.05;100689.56;5059415;28;45922;-69
2022/06/06 02:14:26;;;;;;;;;9.00;9.00;;;;;16.53;74.02;100648.06;5059499;28;45475;-69
2022/06/06 02:16:52;;;;;;;;;9.75;9.75;;;;;16.72;74.11;100680.75;5059741;28;45465;-69
2022/06/06 02:19:18;;;;;;;;;9.33;8.33;;;;;16.70;73.91;100667.53;5059693;28;45483;-69
2022/06/06 02:21:44;;;;;;;;;9.33;8.67;;;;;16.68;73.94;100675.44;5059284;28;45632;-68
2022/06/06 02:24:10;;;;;;;;;9.00;9.00;;;;;16.63;73.78;100677.16;5059625;28;45362;-69
2022/06/06 02:26:35;;;;;;;;;9.00;9.00;;;;;16.49;74.04;100662.97;5059547;28;45360;-69
2022/06/06 02:29:01;;;;;;;;;10.67;9.00;;;;;16.54;74.25;100676.22;5059571;28;45339;-69
2022/06/06 02:31:28;;;;;;;;;8.33;8.33;;;;;16.50;74.11;100673.53;5059269;28;45858;-69
2022/06/06 02:33:54;;;;;;;;;10.00;9.00;;;;;16.47;73.98;100673.53;5058989;28;45419;-68
2022/06/06 02:36:19;;;;;;;;;11.00;10.67;;;;;16.43;73.82;100669.09;5058978;28;45497;-68
2022/06/06 02:38:45;;;;;;;;;9.00;9.00;;;;;16.39;73.75;100662.00;5059316;28;45481;-69
2022/06/06 02:41:11;;;;;;;;;11.67;10.00;;;;;16.30;73.49;100648.78;5059317;28;45450;-69
2022/06/06 02:43:42;;;;;;;;;9.33;9.33;;;;;16.32;73.97;100654.94;5058974;28;45264;-68
2022/06/06 02:46:11;;;;;;;;;10.00;10.00;;;;;16.33;73.74;100650.56;5059263;28;45532;-69
2022/06/06 02:48:37;;;;;;;;;11.00;9.67;;;;;16.33;74.44;100650.56;5059172;28;45421;-68
2022/06/06 02:51:04;;;;;;;;;10.67;9.67;;;;;16.28;74.46;100642.63;5058386;28;45450;-68
2022/06/06 02:53:30;;;;;;;;;8.67;8.00;;;;;16.33;73.91;100650.56;5058799;28;45466;-68
2022/06/06 02:55:57;;;;;;;;;10.33;10.33;;;;;16.35;73.65;100651.44;5059070;28;45331;-68
2022/06/06 02:58:24;;;;;;;;;9.33;8.33;;;;;16.29;73.36;100645.28;5059059;28;45271;-69
2022/06/06 03:00:58;;;;;;;;;10.00;9.00;;;;;16.19;73.86;100645.16;5058792;28;45484;-69
2022/06/06 03:03:23;;;;;;;;;9.00;9.00;;;;;16.08;74.10;100645.09;5058538;28;45468;-71
2022/06/06 03:06:09;;;;;;;;;9.00;9.00;;;;;16.00;74.87;100642.38;5058915;28;45869;-67
2022/06/06 03:08:52;;;;;;;;;9.00;9.00;;;;;15.96;74.57;100635.31;5058913;28;45221;-69
2022/06/06 03:11:31;;;;;;;;;12.00;10.67;;;;;15.91;74.83;100632.59;5058616;28;45506;-68
2022/06/06 03:14:14;;;;;;;;;11.00;10.00;;;;;15.88;76.01;100631.72;5058542;28;45390;-68
2022/06/06 03:23:20;;;;;;;;;10.50;10.00;;;;;15.84;76.14;100622.91;5058522;28;45899;-69
2022/06/06 03:26:05;;;;;;;;;10.75;10.00;;;;;15.82;76.01;100623.75;5058091;28;45406;-68
2022/06/06 03:28:36;;;;;;;;;10.00;9.33;;;;;15.82;75.66;100623.75;5058253;28;45479;-68
2022/06/06 03:31:14;;;;;;;;;8.00;8.00;;;;;15.84;75.61;100622.03;5058539;28;45501;-69
2022/06/06 03:33:47;;;;;;;;;8.00;8.00;;;;;15.73;75.29;100605.22;5058515;28;45580;-68
2022/06/06 03:36:34;;;;;;;;;10.00;9.00;;;;;15.82;75.41;100631.66;5058476;28;45302;-69
2022/06/06 03:39:29;;;;;;;;;11.00;10.00;;;;;15.79;75.32;100632.50;5058196;28;45481;-69
2022/06/06 03:42:14;;;;;;;;;10.00;10.00;;;;;15.77;75.34;100621.06;5058393;28;45521;-69
2022/06/06 03:45:01;;;;;;;;;10.00;9.00;;;;;15.73;75.31;100615.75;5057967;28;46173;-69
2022/06/06 03:47:51;;;;;;;;;9.00;9.00;;;;;15.73;75.16;100618.41;5058135;28;45250;-69
2022/06/06 03:50:29;;;;;;;;;11.67;10.67;;;;;15.61;75.55;100605.94;5058216;28;45393;-69
2022/06/06 03:53:02;;;;;;;;;7.75;7.75;;;;;15.68;75.23;100619.19;5058385;28;45457;-69
2022/06/06 03:55:44;;;;;;;;;8.50;8.50;;;;;15.63;75.02;100620.88;5057897;28;45520;-69
2022/06/06 03:58:14;;;;;;;;;10.50;9.75;;;;;15.58;75.32;100604.19;5057705;28;45479;-69
2022/06/06 04:00:40;;;;;;;;;10.00;10.00;;;;;15.60;75.59;100615.59;5057984;28;45495;-69
2022/06/06 04:03:08;;;;;;;;;9.33;9.33;;;;;15.57;75.53;100617.31;5057008;28;45328;-69
2022/06/06 04:05:38;;;;;;;;;9.00;9.00;;;;;15.54;75.68;100615.53;5057553;28;45403;-69
2022/06/06 04:08:06;;;;;;;;;11.00;9.00;;;;;15.53;75.64;100611.13;5057700;28;45377;-69
2022/06/06 04:11:00;;;;;;;;;10.00;9.33;;;;;15.50;76.14;100606.72;5057687;28;45279;-69
2022/06/06 04:13:39;;;;;;;;;9.00;8.33;;;;;15.53;75.52;100608.50;5057932;28;45248;-69
2022/06/06 04:16:23;;;;;;;;;9.00;9.00;;;;;15.51;75.01;100605.84;5057573;28;45466;-71
2022/06/06 04:19:06;;;;;;;;;9.75;9.75;;;;;15.49;74.90;100604.06;5057544;28;45483;-69
2022/06/06 04:21:57;;;;;;;;;9.00;8.00;;;;;15.47;75.26;100605.81;5057611;28;45435;-70
2022/06/06 04:24:44;;;;;;;;;8.00;8.00;;;;;15.43;75.61;100596.97;5057820;28;45588;-70
2022/06/06 04:27:37;;;;;;;;;8.67;8.33;;;;;15.42;75.44;100608.38;5057528;28;45298;-70
2022/06/06 04:30:31;;;;;;;;;8.25;7.75;;;;;15.41;75.46;100606.59;5057346;28;45446;-71
2022/06/06 04:33:20;;;;;;;;;10.00;9.00;;;;;15.41;75.22;100597.84;5057514;28;45386;-70
2022/06/06 04:36:06;;;;;;;;;12.00;11.00;;;;;15.30;75.42;100582.81;5048388;28;45266;-70
2022/06/06 04:38:47;;;;;;;;;9.00;9.00;;;;;15.41;75.60;100603.09;5057180;28;45270;-69
2022/06/06 04:41:31;;;;;;;;;9.50;9.50;;;;;15.44;75.24;100603.16;5057441;28;45478;-70
2022/06/06 04:44:16;;;;;;;;;9.33;9.00;;;;;15.41;74.92;100592.56;5057488;28;45529;-68
2022/06/06 04:46:52;;;;;;;;;9.25;8.75;;;;;15.44;74.70;100600.53;5056149;28;45451;-69
2022/06/06 04:49:19;;;;;;;;;9.50;9.00;;;;;15.57;74.35;100605.03;5057193;28;45448;-68
2022/06/06 04:51:45;;;;;;;;;9.75;9.00;;;;;15.63;74.56;100607.72;5056915;28;45495;-68
2022/06/06 04:54:16;;;;;;;;;9.50;8.75;;;;;15.66;74.39;100610.41;5057110;28;45471;-68
2022/06/06 04:56:43;;;;;;;;;9.50;9.25;;;;;15.73;74.05;100607.84;5057349;28;45331;-69
2022/06/06 04:59:11;;;;;;;;;10.00;9.75;;;;;15.77;73.75;100607.88;5056872;28;45462;-69
2022/06/06 05:01:40;;;;;;;;;9.33;8.00;;;;;15.79;73.32;100607.91;5056762;28;45471;-68
2022/06/06 05:04:06;;;;;;;;;9.00;9.00;;;;;15.91;73.41;100618.56;5056921;28;45781;-69
2022/06/06 05:06:50;;;;;;;;;9.33;8.67;;;;;15.97;73.28;100609.84;5057077;28;45335;-68
2022/06/06 05:09:18;;;;;;;;;9.00;9.00;;;;;16.03;73.36;100613.41;5056963;28;45944;-68
2022/06/06 05:11:56;;;;;;;;;9.75;9.50;;;;;16.08;72.71;100619.59;5056700;28;45268;-68
2022/06/06 05:14:28;;;;;;;;;8.00;8.00;;;;;16.14;72.28;100602.09;5059948;28;45255;-67
2022/06/06 05:17:32;;;;;;;;;7.50;7.25;;;;;16.18;72.49;100604.75;5060589;28;45369;-68
2022/06/06 05:20:04;;;;;;;;;9.50;9.00;;;;;16.28;72.28;100603.06;5054472;28;45517;-71
2022/06/06 05:22:48;;;;;;;;;9.50;8.25;;;;;16.38;71.81;100602.25;5060138;28;45521;-68
2022/06/06 05:25:14;;;;;;;;;7.25;7.00;;;;;16.57;71.28;100602.38;5060267;28;45398;-67
2022/06/06 05:27:57;;;;;;;;;8.00;8.00;;;;;16.75;70.67;100589.31;5060341;28;45461;-68
2022/06/06 05:30:29;;;;;;;;;9.50;9.25;;;;;16.92;70.14;100589.41;5060571;28;45516;-69
2022/06/06 05:33:22;;;;;;;;;6.75;5.00;;;;;17.07;69.74;100592.13;5060279;28;45502;-68
2022/06/06 05:36:11;;;;;;;;;8.67;8.33;;;;;17.25;69.33;100579.88;5060579;28;45863;-69
2022/06/06 05:38:57;;;;;;;;;9.67;8.67;;;;;17.38;68.77;100578.16;5060581;28;45485;-69
2022/06/06 05:42:04;;;;;;;;;8.67;8.67;;;;;17.41;68.70;100573.75;5060405;28;45428;-68
2022/06/06 05:44:56;;;;;;;;;7.33;7.00;;;;;17.29;68.99;100556.13;5059761;28;45331;-68
2022/06/06 05:47:43;;;;;;;;;10.33;8.67;;;;;17.60;68.87;100572.03;5060061;28;45565;-69
2022/06/06 05:50:15;;;;;;;;;5.33;5.00;;;;;17.79;68.04;100578.22;5060198;28;45352;-69
2022/06/06 05:53:05;;;;;;;;;8.33;8.00;;;;;17.89;67.41;100577.38;5059809;28;45334;-69
2022/06/06 05:55:49;;;;;;;;;10.00;9.33;;;;;17.97;67.03;100580.03;5059746;28;45378;-69
2022/06/06 05:58:39;;;;;;;;;10.33;10.00;;;;;18.08;66.77;100577.38;5059758;28;45295;-69
2022/06/06 06:01:29;;;;;;;;;9.67;9.33;;;;;19.38;64.73;100580.56;5054457;28;45394;-69
2022/06/06 06:04:16;;;;;;;;;7.67;7.33;;;;;19.21;63.41;100572.69;5059753;28;46059;-68
2022/06/06 06:06:41;;;;;;;;;10.67;9.00;;;;;21.51;59.57;100582.09;5059504;28;45457;-69
2022/06/06 06:09:15;;;;;;;;;4.33;4.33;;;;;24.19;52.22;100577.66;5059749;28;45469;-68
2022/06/06 06:11:47;;;;;;;;;7.00;7.00;;;;;25.57;49.25;100567.53;5059826;28;45553;-68
2022/06/06 06:14:33;;;;;;;;;7.00;6.00;;;;;27.75;43.58;100567.75;5059562;28;45764;-69
2022/06/06 06:17:01;;;;;;;;;7.67;7.67;;;;;29.12;40.46;100566.31;5059589;28;45388;-69
2022/06/06 06:19:46;;;;;;;;;7.67;7.33;;;;;30.30;37.25;100565.94;5059478;28;45220;-68
2022/06/06 06:22:13;;;;;;;;;6.00;6.00;;;;;30.76;36.64;100565.31;5059653;28;45500;-69
2022/06/06 06:24:42;;;;;;;;;8.00;7.00;;;;;31.50;36.32;100572.94;5058374;28;46280;-68
2022/06/06 06:27:08;;;;;;;;;6.00;6.00;;;;;32.02;33.91;100562.81;5059313;28;45582;-69
2022/06/06 06:29:34;;;;;;;;;7.00;7.00;;;;;30.49;37.06;100559.56;5059548;28;45599;-68
2022/06/06 06:32:24;;;;;;;;;6.00;6.00;;;;;31.77;35.28;100553.41;5059506;28;45545;-69
2022/06/06 06:35:01;;;;;;;;;6.67;6.67;;;;;33.66;32.55;100565.22;5059065;28;45513;-69
2022/06/06 06:37:51;;;;;;;;;5.67;5.67;;;;;34.97;30.42;100561.66;5059080;28;45521;-69
2022/06/06 06:40:30;;;;;;;;;9.67;9.67;;;;;35.82;28.42;100554.47;5059187;28;45579;-69
2022/06/06 06:43:18;;;;;;;;;7.33;6.33;;;;;35.78;28.16;100557.56;5059331;28;45485;-69
2022/06/06 06:45:56;;;;;;;;;6.00;5.00;;;;;35.63;29.13;100559.53;5058911;28;45555;-70
2022/06/06 06:48:29;;;;;;;;;5.67;5.67;;;;;36.80;27.27;100558.72;5058923;28;45238;-69
2022/06/06 06:51:21;;;;;;;;;5.00;5.00;;;;;38.42;25.47;100562.56;5059248;28;45501;-69
2022/06/06 06:54:21;;;;;;;;;4.67;4.67;;;;;39.54;23.50;100558.03;5059012;28;45415;-69
2022/06/06 06:57:28;;;;;;;;;7.67;7.00;;;;;39.12;23.80;100571.00;5050942;28;46158;-70
2022/06/06 07:00:08;;;;;;;;;7.00;7.00;;;;;39.56;23.58;100560.63;5016451;28;45460;-69
2022/06/06 07:08:49;;;;;;;;;4.00;4.00;;;;;41.97;21.08;100569.25;5058515;28;45315;-72
2022/06/06 07:11:43;;;;;;;;;6.00;5.33;;;;;42.28;20.17;100569.72;5058572;28;45164;-70
2022/06/06 07:14:36;;;;;;;;;4.00;4.00;;;;;41.82;21.10;100568.09;5058831;28;45454;-70
2022/06/06 07:17:02;;;;;;;;;5.00;5.00;;;;;41.43;21.18;100560.13;5057216;28;46180;-70
2022/06/06 07:19:59;;;;;;;;;3.33;3.33;;;;;41.99;20.56;100567.22;5058638;28;46180;-70
2022/06/06 07:22:59;;;;;;;;;5.33;4.67;;;;;42.68;20.05;100565.56;5058168;28;45468;-70
2022/06/06 07:25:15;;;;;;;;;4.00;4.00;;;;;43.81;18.87;100561.69;5058539;28;45462;-70
2022/06/06 07:27:41;;;;;;;;;4.33;4.33;;;;;42.78;19.08;100551.69;5058715;28;45569;-70
2022/06/06 07:30:07;;;;;;;;;5.00;5.00;;;;;41.90;20.29;100548.94;5058312;28;46124;-71
2022/06/06 07:33:08;;;;;;;;;4.00;4.00;;;;;42.08;19.39;100552.59;5058078;28;45529;-70
2022/06/06 07:36:10;;;;;;;;;5.00;3.67;;;;;43.74;18.03;100544.19;5058397;28;45328;-70
2022/06/06 07:38:41;;;;;;;;;4.33;4.00;;;;;43.47;17.77;100541.50;5058722;28;45546;-70
2022/06/06 07:41:16;;;;;;;;;7.00;6.33;;;;;41.93;19.54;100527.56;5057803;28;45569;-69
2022/06/06 07:44:29;;;;;;;;;5.00;5.00;;;;;40.38;21.02;100528.41;5057908;28;45473;-70
2022/06/06 07:47:23;;;;;;;;;4.67;4.67;;;;;41.90;19.73;100537.97;5057989;28;45323;-70
2022/06/06 07:49:58;;;;;;;;;4.33;3.33;;;;;43.68;18.13;100534.72;5036286;28;45415;-69
2022/06/06 07:52:34;;;;;;;;;4.00;4.00;;;;;45.11;17.09;100514.84;5057614;28;45266;-71
2022/06/06 07:55:19;;;;;;;;;5.33;4.33;;;;;43.86;17.92;100526.28;5058311;28;45466;-70
2022/06/06 07:58:00;;;;;;;;;5.67;5.00;;;;;43.47;18.53;100524.16;5058001;28;45331;-71
2022/06/06 08:00:28;;;;;;;;;3.67;3.67;;;;;43.85;17.56;100522.69;5057816;28;45354;-71
2022/06/06 08:03:07;;;;;;;;;5.33;4.33;;;;;45.34;16.55;100520.44;5057538;28;45449;-72
2022/06/06 08:06:10;;;;;;;;;5.33;4.67;;;;;46.43;16.17;100515.59;5057400;28;45605;-72
2022/06/06 08:08:51;;;;;;;;;3.67;3.67;;;;;47.07;15.50;100503.94;5057426;28;45302;-71
2022/06/06 08:11:31;;;;;;;;;4.00;4.00;;;;;47.49;15.20;100509.75;5057467;28;45488;-70
2022/06/06 08:14:06;;;;;;;;;4.67;4.33;;;;;47.85;14.61;100509.66;5057651;28;46132;-71
2022/06/06 08:17:00;;;;;;;;;4.33;4.00;;;;;48.15;14.37;100512.28;5057382;28;45452;-70
2022/06/06 08:20:03;;;;;;;;;3.67;3.67;;;;;46.03;16.56;100503.88;5056859;28;45767;-70
2022/06/06 08:22:30;;;;;;;;;5.67;5.67;;;;;46.36;15.97;100507.19;5056040;28;45265;-71
2022/06/06 08:24:58;;;;;;;;;5.33;5.00;;;;;46.15;15.76;100499.63;5056454;28;46260;-70
2022/06/06 08:27:27;;;;;;;;;5.00;5.00;;;;;46.94;15.54;100501.88;5056888;28;45455;-71
2022/06/06 08:29:53;;;;;;;;;5.00;5.00;;;;;47.69;15.00;100502.50;5057095;28;45161;-70
2022/06/06 08:32:18;;;;;;;;;4.67;4.00;;;;;47.44;15.10;100485.44;5055484;28;45485;-71
2022/06/06 08:34:45;;;;;;;;;4.00;4.00;;;;;46.06;15.87;100494.38;5056498;28;45285;-70
2022/06/06 08:37:37;;;;;;;;;5.00;5.00;;;;;43.50;17.92;100504.56;5056589;28;45483;-70
2022/06/06 08:40:27;;;;;;;;;5.00;4.67;;;;;42.08;19.73;100491.31;5057181;28;45449;-69
2022/06/06 08:43:12;;;;;;;;;4.00;4.00;;;;;41.59;20.73;100489.00;5056965;28;45460;-70
2022/06/06 08:45:50;;;;;;;;;5.00;5.00;;;;;41.03;21.23;100490.97;5056561;28;46164;-73
2022/06/06 08:48:28;;;;;;;;;6.33;6.00;;;;;40.31;21.83;100498.00;5056143;28;45355;-70
2022/06/06 08:51:18;;;;;;;;;5.00;5.00;;;;;42.10;20.07;100440.78;5056671;28;45636;-70
2022/06/06 08:54:10;;;;;;;;;4.00;4.00;;;;;45.56;17.09;100483.72;5055977;28;45541;-70
2022/06/06 08:56:54;;;;;;;;;6.00;5.00;;;;;45.82;16.56;100501.81;5056381;28;46094;-70
2022/06/06 08:59:31;;;;;;;;;8.33;7.33;;;;;45.18;17.03;100489.13;5057115;28;45529;-71
2022/06/06 09:02:20;;;;;;;;;5.67;5.67;;;;;43.71;18.83;100492.22;5056835;28;45292;-71
2022/06/06 09:05:04;;;;;;;;;18.33;16.33;;;;;43.11;19.17;100491.38;5057452;28;45491;-71
2022/06/06 09:07:59;;;;;;;;;6.00;5.33;;;;;42.70;19.13;100497.56;5056503;28;45975;-72
2022/06/06 09:10:48;;;;;;;;;5.00;5.00;;;;;43.32;19.82;100490.09;5056928;28;45293;-71
2022/06/06 09:13:34;;;;;;;;;7.33;5.33;;;;;43.84;18.87;100490.69;5056652;28;45422;-72
2022/06/06 09:16:37;;;;;;;;;6.00;6.00;;;;;45.17;17.54;100487.41;5056735;28;45485;-72
2022/06/06 09:19:21;;;;;;;;;7.00;5.67;;;;;46.45;16.99;100499.69;5055172;28;46706;-70
2022/06/06 09:22:07;;;;;;;;;5.00;5.00;;;;;47.60;15.64;100500.94;5056225;28;45601;-71
2022/06/06 09:24:58;;;;;;;;;10.67;10.00;;;;;48.32;15.10;100499.03;5056596;28;45355;-71
2022/06/06 09:27:55;;;;;;;;;4.67;4.33;;;;;48.49;15.07;100488.44;5056462;28;45551;-72
2022/06/06 09:30:28;;;;;;;;;6.00;6.00;;;;;47.57;15.94;100479.19;5055809;28;46329;-71
2022/06/06 09:33:14;;;;;;;;;14.67;14.67;;;;;45.31;17.42;100474.78;5055992;28;45358;-70
2022/06/06 09:35:51;;;;;;;;;6.00;5.67;;;;;44.31;18.02;100482.72;5056250;28;45291;-71
2022/06/06 09:38:39;;;;;;;;;5.00;5.00;;;;;45.40;17.68;100487.44;5056520;28;46100;-70
2022/06/06 09:41:37;;;;;;;;;5.00;5.00;;;;;45.82;16.59;100476.97;5056212;28;46081;-70
2022/06/06 09:44:51;;;;;;;;;5.00;5.00;;;;;45.83;17.08;100475.94;5056169;28;45271;-70
2022/06/06 09:47:58;;;;;;;;;8.33;8.33;;;;;46.51;16.40;100478.75;5055875;28;45411;-72
2022/06/06 09:50:50;;;;;;;;;12.75;12.50;;;;;44.27;18.35;100474.84;5068535;28;45513;-71
2022/06/06 09:59:40;;;;;;;;;7.33;7.33;;;;;39.06;23.95;100486.84;5055602;28;45464;-70
2022/06/06 10:02:15;;;;;;;;;6.00;6.00;;;;;38.29;24.87;100499.13;5059620;28;45303;-71
2022/06/06 10:05:17;;;;;;;;;7.33;7.33;;;;;37.51;25.45;100496.63;5058873;28;45532;-71
2022/06/06 10:07:48;;;;;;;;;7.67;7.00;;;;;36.89;26.58;100491.78;5058756;28;45492;-70
2022/06/06 10:10:28;;;;;;;;;9.00;8.33;;;;;36.22;27.24;100504.34;5059017;28;45556;-70
2022/06/06 10:13:05;;;;;;;;;9.00;8.33;;;;;35.51;28.64;100492.53;5059005;28;45319;-70
2022/06/06 10:16:04;;;;;;;;;9.00;7.33;;;;;36.30;28.05;100506.47;5058501;28;46160;-71
2022/06/06 10:18:56;;;;;;;;;9.33;9.33;;;;;37.49;26.42;100503.22;5058899;28;45362;-71
2022/06/06 10:21:50;;;;;;;;;7.33;6.00;;;;;38.11;25.52;100502.47;5059317;28;45491;-70
2022/06/06 10:24:36;;;;;;;;;23.67;23.00;;;;;38.98;24.88;100510.28;5058972;28;45470;-71
2022/06/06 10:27:18;;;;;;;;;8.33;7.33;;;;;39.62;23.45;100515.47;5058528;28;46346;-70
2022/06/06 10:30:11;;;;;;;;;6.67;6.00;;;;;39.09;23.76;100508.44;5058614;28;45328;-70
2022/06/06 10:33:14;;;;;;;;;8.00;8.00;;;;;39.15;23.93;100514.19;5058694;28;45318;-71
2022/06/06 10:36:19;;;;;;;;;6.67;6.67;;;;;38.85;23.99;100526.00;5058988;28;45349;-71
2022/06/06 10:39:02;;;;;;;;;6.00;6.00;;;;;38.09;25.16;100512.66;5056001;28;46132;-71
2022/06/06 10:41:39;;;;;;;;;7.00;7.00;;;;;37.97;25.37;100532.78;5058264;28;45572;-70
2022/06/06 10:44:29;;;;;;;;;7.33;7.33;;;;;39.35;23.80;100520.56;5058353;28;45420;-70
2022/06/06 10:47:07;;;;;;;;;7.00;7.00;;;;;39.71;23.25;100525.53;5058086;28;45494;-71
2022/06/06 10:49:41;;;;;;;;;7.00;6.00;;;;;39.37;22.82;100526.75;5057229;28;45538;-70
2022/06/06 10:52:40;;;;;;;;;9.00;8.00;;;;;39.05;23.92;100520.66;5058185;28;45440;-70
2022/06/06 10:55:27;;;;;;;;;6.33;6.33;;;;;38.50;24.71;100518.19;5058194;28;45393;-70
2022/06/06 10:58:12;;;;;;;;;5.00;5.00;;;;;38.79;24.57;100537.47;5058468;28;45490;-72
2022/06/06 11:00:53;;;;;;;;;6.33;6.33;;;;;38.63;24.29;100531.66;5058368;28;45583;-70
2022/06/06 11:04:03;;;;;;;;;6.67;6.67;;;;;38.19;25.15;100535.41;5058222;28;45430;-71
2022/06/06 11:06:45;;;;;;;;;8.00;7.00;;;;;38.12;25.24;100536.94;5058054;28;45346;-70
2022/06/06 11:09:41;;;;;;;;;8.00;8.00;;;;;37.52;26.49;100530.19;5058461;28;45489;-70
2022/06/06 11:12:18;;;;;;;;;10.33;10.33;;;;;36.72;27.60;100531.25;5057111;28;46635;-70
2022/06/06 11:14:45;;;;;;;;;8.00;7.67;;;;;36.51;28.11;100536.53;5057956;28;45524;-70
2022/06/06 11:17:38;;;;;;;;;6.33;5.67;;;;;36.23;28.05;100527.81;5058285;28;45453;-70
2022/06/06 11:20:18;;;;;;;;;8.00;8.00;;;;;35.97;28.71;100525.28;5058047;28;45347;-70
2022/06/06 11:22:51;;;;;;;;;6.67;6.67;;;;;35.59;29.66;100539.00;5057502;28;46093;-70
2022/06/06 11:25:22;;;;;;;;;6.00;6.00;;;;;35.29;30.53;100537.59;5056572;28;45463;-71
2022/06/06 11:28:23;;;;;;;;;9.33;7.33;;;;;35.09;30.69;100530.91;5057955;28;45503;-71
2022/06/06 11:31:03;;;;;;;;;10.00;9.33;;;;;35.01;30.48;100539.59;5057903;28;45490;-70
2022/06/06 11:33:35;;;;;;;;;9.33;8.67;;;;;34.92;31.52;100536.69;5057415;28;45310;-70
2022/06/06 11:36:12;;;;;;;;;8.67;7.67;;;;;34.76;31.27;100536.91;5057564;28;45457;-70
2022/06/06 11:38:41;;;;;;;;;9.33;9.00;;;;;34.62;31.93;100541.47;5057675;28;45307;-70
2022/06/06 11:41:19;;;;;;;;;9.00;9.00;;;;;34.40;31.71;100536.69;5057690;28;45234;-70
2022/06/06 11:44:33;;;;;;;;;9.33;8.00;;;;;34.16;31.57;100533.84;5057323;28;45940;-70
2022/06/06 11:47:25;;;;;;;;;9.33;9.33;;;;;34.07;31.62;100535.31;5057274;28;45463;-72
2022/06/06 11:50:34;;;;;;;;;11.00;10.00;;;;;34.05;32.55;100525.56;5053044;28;45471;-69
2022/06/06 11:53:00;;;;;;;;;8.67;8.67;;;;;34.07;32.90;100538.03;5051760;28;45513;-71
2022/06/06 11:55:50;;;;;;;;;10.00;8.00;;;;;33.90;32.96;100518.47;5057059;28;45441;-69
2022/06/06 11:58:15;;;;;;;;;8.33;8.33;;;;;33.87;32.24;100533.97;5057402;28;45503;-70
2022/06/06 12:01:19;;;;;;;;;8.00;8.00;;;;;33.65;33.22;100539.97;5056326;28;45569;-71
2022/06/06 12:04:20;;;;;;;;;15.67;15.00;;;;;33.32;33.27;100512.38;5058078;28;45481;-69
2022/06/06 12:06:57;;;;;;;;;8.67;8.00;;;;;33.15;33.58;100530.59;5057277;28;45331;-69
2022/06/06 12:09:53;;;;;;;;;6.67;6.67;;;;;32.79;33.48;100518.44;5057605;28;45512;-70
2022/06/06 12:12:27;;;;;;;;;7.00;7.00;;;;;32.65;33.82;100530.13;5057262;28;45533;-69
2022/06/06 12:15:01;;;;;;;;;8.67;8.00;;;;;32.55;34.65;100528.97;5057350;28;45749;-69
2022/06/06 12:18:01;;;;;;;;;9.33;9.33;;;;;32.50;34.07;100522.94;5056885;28;46252;-70
2022/06/06 12:20:56;;;;;;;;;11.00;10.00;;;;;32.42;34.19;100530.66;5057253;28;45382;-70
2022/06/06 12:23:39;;;;;;;;;8.33;8.33;;;;;32.26;35.15;100531.59;5056613;28;45420;-70
2022/06/06 12:26:19;;;;;;;;;10.33;8.00;;;;;32.14;35.28;100529.63;5057401;28;45264;-70
2022/06/06 12:29:12;;;;;;;;;8.00;8.00;;;;;32.07;35.35;100531.84;5057484;28;45391;-70
2022/06/06 12:32:03;;;;;;;;;10.00;9.33;;;;;32.10;35.20;100526.25;5057300;28;45275;-70
2022/06/06 12:34:52;;;;;;;;;8.33;8.00;;;;;32.28;35.55;100531.50;5057232;28;45481;-70
2022/06/06 12:37:22;;;;;;;;;9.33;9.33;;;;;32.32;35.79;100510.56;5057096;28;45521;-69
2022/06/06 12:40:05;;;;;;;;;9.00;9.00;;;;;32.33;35.35;100506.88;5056515;28;45564;-69